Observations for Trim Patrick St
| Time | AQI | Temp °C | Hum % | Pres Pa | CO μg/m³ | H₂S μg/m³ | NO μg/m³ | NO₂ μg/m³ | O₃ μg/m³ | SO₂ μg/m³ | PM1 μg/m³ | PM2.5 μg/m³ | PM10 μg/m³ |
|---|---|---|---|---|---|---|---|---|---|---|---|---|---|
| Thursday 27 August 2026 | |||||||||||||
| 09:34 | 2 | 20.1 | 78 | 38,460 | 0.07 | 0 | 2.42 | 11.95 | 35.76 | 0.8 | 21.72 | 32.1 | 33.39 |
| 09:33 | 2 | 20.1 | 78 | 38,460 | 0.06 | 0 | 2.09 | 8.42 | 40.41 | 1.64 | 20.86 | 30.66 | 33.33 |
| 09:32 | 2 | 20.1 | 78 | 38,460 | 0.05 | 0 | 1.86 | 7.5 | 45.83 | 0.92 | 21.72 | 32.07 | 34.74 |
| 09:31 | 2 | 20.1 | 78 | 38,460 | 0.08 | 0 | 2.11 | 8.62 | 39.73 | 0.64 | 21.72 | 32.07 | 33.33 |
| 09:30 | 2 | 20.1 | 78 | 38,460 | 0.08 | 0 | 1.39 | 13.35 | 39.31 | 0.32 | 22.57 | 33.52 | 37.66 |
| 09:29 | 2 | 20.1 | 78 | 38,460 | 0.1 | 0 | 1.53 | 12.14 | 21.93 | 1.95 | 22.57 | 32.06 | 34 |
| 09:28 | 2 | 20.1 | 78 | 38,460 | 0.08 | 0 | 1.5 | 10.59 | 34.21 | 1.05 | 22.57 | 32.07 | 34.03 |
| 09:27 | 2 | 20.1 | 78 | 38,460 | 0.07 | 0 | 1.19 | 6.88 | 45.14 | 0.59 | 20.86 | 32.07 | 34.03 |
| 09:26 | 2 | 20.1 | 78 | 38,460 | 0.11 | 0 | 1.16 | 9.02 | 42.66 | 0.14 | 22.57 | 33.52 | 36.25 |
| 09:25 | 2 | 20.1 | 78 | 38,460 | 0.12 | 0 | 1.31 | 8.55 | 41.99 | 0.44 | 22.57 | 34.17 | 36.81 |
| 09:24 | 2 | 20.1 | 78 | 38,460 | 0.09 | 0 | 1.09 | 12.29 | 29.19 | 1.06 | 22.57 | 31.35 | 34 |
| 09:23 | 2 | 20.1 | 79 | 38,460 | 0.09 | 0 | 0.81 | 10.9 | 26.45 | 1.25 | 20.86 | 30.62 | 33.23 |
| 09:22 | 2 | 20.1 | 78 | 38,460 | 0.11 | 0 | 0.92 | 10.66 | 36.87 | 0.5 | 23.43 | 32.74 | 36.07 |
| 09:21 | 2 | 20.1 | 79 | 38,460 | 0.11 | 0 | 1.1 | 9.48 | 34.16 | 1.32 | 20.86 | 30.61 | 31.79 |
| 09:20 | 2 | 20.1 | 79 | 38,460 | 0.11 | 0 | 0.91 | 8.05 | 40.67 | 1.78 | 20 | 27.07 | 29.77 |
| 09:19 | 2 | 20 | 79 | 38,460 | 0.11 | 0 | 0.84 | 8.01 | 38.14 | 1.57 | 21.72 | 31.98 | 34.53 |
| 09:18 | 2 | 20 | 79 | 38,460 | 0.12 | 0 | 1.06 | 7.7 | 39.23 | 1.13 | 18.29 | 27.08 | 29.79 |
| 09:17 | 2 | 20 | 79 | 38,460 | 0.12 | 0 | 1.19 | 11.45 | 37.14 | 0.18 | 23.43 | 33.43 | 35.34 |
| 09:16 | 2 | 20 | 79 | 38,460 | 0.12 | 0 | 0.82 | 9.68 | 31.54 | 1.01 | 20.86 | 30.58 | 31.73 |
| 09:15 | 2 | 20 | 79 | 38,460 | 0.13 | 0 | 1.09 | 10.12 | 32.28 | 0.69 | 21.72 | 31.28 | 31.73 |